Aérodrome :
LOGIN :

S'inscrire | Disclaimer

   EN    FR    IT 

 










Légende :    VFR   VFR Marginal   IFR   IFR Intensif   IFR Très Intensif
Visi : 
Plafond : 
>= 8 km
>= 3000ft
5 à 8 km
1000 à 3000 ft
1500m à 5 km
500 à 1000 ft
800 à 1500m
200 à 500 ft
< 800m
< 200 ft
Symboles :   Orages  Brouillard  Fortes neiges  Fortes précipitations  Vent > 20 kt
SIGMETs :   Divers  Orages  Givrage  Turbulence  Onde Orograph.  Cendres Volcan.







- Altitude de l'aérodrome : 55 ft
- Code IATA : DSA
- Voir les cartes d'approche


EGCN - Robin Hood Doncaster Sheffield

DERNIER METAR :
  • 171050Z 32011KT 9999 FEW038 16/06 Q1027

METARs EXPIRÉS :
  • 171020Z 32010KT 9999 FEW022 15/06 Q1026
  • 170950Z 31011KT CAVOK 15/06 Q1026
  • 170920Z 32012KT CAVOK 14/07 Q1026
  • 170850Z 32011KT CAVOK 14/07 Q1026
  • 170820Z 31011KT CAVOK 13/07 Q1026

TAF TAF EGCN
Valide du 17 à 06h jusqu'au 18 à 06h UTC


170458Z 1706/1806 30006KT 9999 FEW035
PROB30 1804/1806 8000
Pas de NOTAMs connus pour ce terrain.



MET'MAP, la Météo Aéronautique d'un coup d'oeil ! - Copyright ORBIFLY Décembre 2007 - Disclaimer

ORBIFLY MET'MAP TEAM :

Programmation & Développement : Alexandra Zaïnal
Conception & Développement : Baudouin d'Aumeries
Co-Programmation & Développement : Marc-Olivier Méhu
Soutien technique & logistique : Manuel Goepfert

Contact : metmap@orbifly.com




SOURCES & CREDITS :

   NOAA